createdAt,value
2022-12-18T00:01:19.393Z,11.05
2022-12-18T00:03:47.349Z,11.48
2022-12-18T00:06:15.588Z,15.10
2022-12-18T00:08:43.456Z,13.48
2022-12-18T00:11:16.611Z,14.00
2022-12-18T00:13:44.129Z,12.07
2022-12-18T00:16:15.785Z,14.15
2022-12-18T00:18:43.243Z,13.85
2022-12-18T00:21:12.232Z,14.40
2022-12-18T00:23:40.896Z,13.65
2022-12-18T00:26:11.785Z,13.98
2022-12-18T00:28:42.196Z,14.60
2022-12-18T00:31:11.510Z,11.73
2022-12-18T00:33:39.326Z,14.90
2022-12-18T00:36:15.229Z,13.45
2022-12-18T00:38:42.636Z,14.55
2022-12-18T00:41:11.335Z,13.23
2022-12-18T00:43:40.022Z,13.05
2022-12-18T00:46:07.489Z,12.20
2022-12-18T00:48:35.261Z,12.60
2022-12-18T00:51:02.330Z,15.07
2022-12-18T00:53:29.498Z,15.65
2022-12-18T00:55:56.927Z,13.35
2022-12-18T00:58:24.026Z,11.95
2022-12-18T01:00:51.161Z,15.32
2022-12-18T01:03:18.640Z,11.90
2022-12-18T01:05:45.778Z,11.65
2022-12-18T01:08:12.917Z,12.65
2022-12-18T01:10:42.922Z,14.52
2022-12-18T01:13:09.995Z,13.35
2022-12-18T01:15:37.199Z,13.45
2022-12-18T01:18:05.754Z,10.98
2022-12-18T01:20:33.427Z,11.05
2022-12-18T01:23:00.529Z,11.75
2022-12-18T01:25:27.866Z,14.98
2022-12-18T01:27:54.914Z,10.63
2022-12-18T01:30:21.976Z,11.50
2022-12-18T01:32:49.363Z,13.02
2022-12-18T01:35:17.703Z,12.98
2022-12-18T01:37:44.794Z,12.77
2022-12-18T01:40:12.288Z,12.15
2022-12-18T01:42:39.916Z,13.23
2022-12-18T01:45:12.976Z,13.38
2022-12-18T01:47:51.003Z,12.70
2022-12-18T01:50:22.817Z,13.05
2022-12-18T01:52:54.146Z,11.82
2022-12-18T01:55:25.090Z,12.45
2022-12-18T01:57:55.345Z,11.10
2022-12-18T02:00:24.008Z,11.63
2022-12-18T02:02:52.298Z,13.68
2022-12-18T02:05:27.067Z,14.80
2022-12-18T02:08:23.408Z,11.70
2022-12-18T02:11:20.657Z,10.88
2022-12-18T02:14:12.812Z,12.48
2022-12-18T02:17:02.820Z,14.07
2022-12-18T02:19:52.297Z,12.25
2022-12-18T02:22:45.572Z,11.82
2022-12-18T02:25:31.017Z,13.93
2022-12-18T02:28:00.931Z,13.65
2022-12-18T02:30:32.507Z,12.93
2022-12-18T02:33:02.263Z,12.18
2022-12-18T02:35:31.445Z,13.00
2022-12-18T02:37:59.261Z,12.20
2022-12-18T02:40:28.936Z,12.00
2022-12-18T02:42:56.344Z,13.02
2022-12-18T02:45:24.347Z,11.32
2022-12-18T02:47:52.739Z,11.77
2022-12-18T02:50:23.911Z,13.75
2022-12-18T02:53:05.375Z,11.35
2022-12-18T02:55:41.665Z,11.27
2022-12-18T02:58:29.953Z,13.23
2022-12-18T03:01:29.632Z,12.30
2022-12-18T03:04:02.476Z,10.70
2022-12-18T03:06:33.573Z,12.23
2022-12-18T03:09:03.898Z,13.80
2022-12-18T03:11:52.640Z,12.57
2022-12-18T03:14:21.759Z,12.15
2022-12-18T03:16:52.833Z,10.85
2022-12-18T03:19:23.854Z,13.25
2022-12-18T03:21:55.518Z,11.10
2022-12-18T03:24:24.956Z,12.82
2022-12-18T03:26:55.940Z,11.35
2022-12-18T03:29:30.052Z,12.23
2022-12-18T03:32:04.397Z,11.70
2022-12-18T03:34:35.045Z,12.20
2022-12-18T03:37:04.367Z,11.90
2022-12-18T03:39:32.803Z,11.85
2022-12-18T03:42:15.775Z,13.52
2022-12-18T03:45:16.829Z,9.63
2022-12-18T03:48:01.900Z,11.90
2022-12-18T03:50:49.092Z,10.80
2022-12-18T03:53:46.107Z,10.05
2022-12-18T03:56:15.000Z,11.70
2022-12-18T03:58:43.301Z,12.18
2022-12-18T04:01:13.559Z,11.55
2022-12-18T04:03:42.632Z,10.85
2022-12-18T04:06:11.071Z,12.27
2022-12-18T04:08:39.621Z,13.40
2022-12-18T04:11:07.326Z,12.15
2022-12-18T04:13:37.376Z,11.70
2022-12-18T04:16:06.340Z,10.43
2022-12-18T04:18:33.871Z,12.07
2022-12-18T04:21:01.185Z,12.00
2022-12-18T04:23:29.395Z,10.77
2022-12-18T04:25:57.415Z,11.93
2022-12-18T04:28:27.227Z,11.15
2022-12-18T04:30:54.390Z,12.70
2022-12-18T04:33:22.706Z,10.23
2022-12-18T04:35:50.028Z,10.73
2022-12-18T04:38:18.048Z,12.37
2022-12-18T04:40:46.597Z,10.48
2022-12-18T04:43:14.944Z,11.88
2022-12-18T04:45:42.121Z,11.20
2022-12-18T04:48:09.526Z,11.35
2022-12-18T04:50:37.435Z,10.18
2022-12-18T04:53:04.560Z,11.95
2022-12-18T04:55:31.936Z,11.05
2022-12-18T04:57:58.993Z,12.50
2022-12-18T05:00:27.311Z,11.25
2022-12-18T05:02:55.227Z,12.13
2022-12-18T05:05:22.388Z,10.32
2022-12-18T05:07:49.444Z,11.77
2022-12-18T05:10:16.782Z,11.82
2022-12-18T05:13:02.154Z,11.38
2022-12-18T05:15:30.818Z,10.75
2022-12-18T05:17:58.957Z,11.55
2022-12-18T05:20:26.874Z,9.65
2022-12-18T05:22:55.504Z,12.23
2022-12-18T05:25:23.405Z,10.95
2022-12-18T05:27:50.455Z,12.48
2022-12-18T05:30:18.036Z,12.77
2022-12-18T05:32:45.117Z,12.85
2022-12-18T05:35:12.385Z,11.65
2022-12-18T05:37:43.169Z,11.82
2022-12-18T05:40:11.339Z,10.65
2022-12-18T05:42:38.470Z,11.98
2022-12-18T05:45:06.790Z,10.98
2022-12-18T05:47:33.813Z,11.68
2022-12-18T05:50:00.886Z,11.35
2022-12-18T05:52:28.181Z,11.32
2022-12-18T05:54:55.277Z,10.27
2022-12-18T05:57:22.349Z,10.52
2022-12-18T05:59:49.708Z,11.32
2022-12-18T06:02:16.913Z,10.65
2022-12-18T06:04:44.318Z,11.65
2022-12-18T06:07:11.368Z,12.25
2022-12-18T06:09:38.505Z,12.48
2022-12-18T06:12:06.328Z,11.05
2022-12-18T06:14:33.409Z,10.30
2022-12-18T06:17:00.437Z,13.52
2022-12-18T06:19:27.733Z,13.60
2022-12-18T06:21:54.748Z,12.52
2022-12-18T06:24:21.798Z,12.88
2022-12-18T06:26:49.082Z,12.68
2022-12-18T06:29:16.077Z,11.95
2022-12-18T06:31:43.114Z,12.07
2022-12-18T06:34:10.454Z,20.73
2022-12-18T06:36:37.452Z,17.83
2022-12-18T06:39:04.980Z,16.48
2022-12-18T06:41:32.290Z,17.80
2022-12-18T06:44:00.063Z,17.73
2022-12-18T06:46:27.783Z,16.87
2022-12-18T06:48:55.033Z,13.68
2022-12-18T06:51:23.601Z,19.35
2022-12-18T06:53:50.778Z,13.93
2022-12-18T06:56:18.274Z,16.08
2022-12-18T06:58:45.345Z,13.10
2022-12-18T07:01:13.313Z,15.15
2022-12-18T07:03:42.164Z,15.20
2022-12-18T07:06:27.447Z,12.80
2022-12-18T07:08:55.264Z,13.15
2022-12-18T07:11:22.814Z,13.65
2022-12-18T07:13:49.889Z,13.25
2022-12-18T07:16:25.197Z,10.98
2022-12-18T07:18:53.267Z,12.63
2022-12-18T07:21:20.724Z,13.62
2022-12-18T07:23:49.198Z,13.48
2022-12-18T07:26:18.643Z,11.75
2022-12-18T07:28:46.089Z,13.75
2022-12-18T07:31:15.747Z,15.55
2022-12-18T07:33:43.331Z,11.40
2022-12-18T07:36:11.289Z,11.15
2022-12-18T07:38:38.653Z,15.23
2022-12-18T07:41:08.216Z,13.35
2022-12-18T07:43:36.169Z,11.63
2022-12-18T07:46:03.796Z,13.85
2022-12-18T07:48:31.516Z,12.43
2022-12-18T07:51:03.659Z,13.10
2022-12-18T07:53:31.526Z,12.98
2022-12-18T07:56:25.969Z,11.65
2022-12-18T07:58:48.568Z,10.90
2022-12-18T08:01:16.644Z,14.25
2022-12-18T08:03:44.581Z,13.70
2022-12-18T08:06:11.633Z,15.13
2022-12-18T08:08:38.759Z,13.45
2022-12-18T08:11:06.119Z,15.38
2022-12-18T08:13:33.186Z,14.18
2022-12-18T08:16:02.688Z,14.30
2022-12-18T08:18:30.561Z,14.00
2022-12-18T08:21:10.321Z,12.52
2022-12-18T08:23:42.568Z,14.25
2022-12-18T08:26:11.298Z,13.38
2022-12-18T08:28:38.904Z,13.93
2022-12-18T08:31:06.379Z,15.15
2022-12-18T08:33:33.907Z,13.43
2022-12-18T08:36:01.785Z,14.05
2022-12-18T08:38:29.136Z,14.38
2022-12-18T08:41:04.001Z,17.12
2022-12-18T08:43:50.122Z,15.20
2022-12-18T08:46:17.700Z,15.80
2022-12-18T08:48:45.159Z,16.70
2022-12-18T08:51:13.539Z,15.27
2022-12-18T08:53:41.022Z,16.48
2022-12-18T08:56:09.034Z,15.40
2022-12-18T08:58:36.091Z,14.27
2022-12-18T09:01:08.214Z,13.65
2022-12-18T09:03:36.051Z,13.32
2022-12-18T09:06:03.384Z,13.60
2022-12-18T09:08:30.835Z,13.68
2022-12-18T09:11:04.074Z,15.33
2022-12-18T09:13:31.313Z,11.93
2022-12-18T09:15:58.527Z,13.73
2022-12-18T09:18:26.125Z,13.30
2022-12-18T09:20:53.966Z,15.80
2022-12-18T09:23:21.823Z,15.18
2022-12-18T09:25:49.644Z,13.90
2022-12-18T09:28:18.655Z,15.20
2022-12-18T09:30:50.191Z,16.20
2022-12-18T09:33:18.523Z,14.85
2022-12-18T09:35:47.190Z,16.52
2022-12-18T09:38:17.443Z,14.35
2022-12-18T09:40:51.194Z,13.73
2022-12-18T09:43:20.963Z,15.32
2022-12-18T09:45:59.477Z,13.62
2022-12-18T09:48:32.337Z,14.77
2022-12-18T09:51:03.797Z,15.00
2022-12-18T09:53:34.351Z,14.60
2022-12-18T09:56:02.885Z,14.52
2022-12-18T09:58:34.253Z,14.38
2022-12-18T10:01:01.519Z,14.57
2022-12-18T10:03:29.023Z,13.50
2022-12-18T10:06:14.737Z,16.12
2022-12-18T10:08:49.567Z,16.12
2022-12-18T10:11:28.691Z,13.75
2022-12-18T10:14:12.205Z,15.88
2022-12-18T10:16:48.531Z,13.88
2022-12-18T10:19:34.515Z,16.27
2022-12-18T10:22:23.197Z,14.48
2022-12-18T10:24:52.316Z,15.88
2022-12-18T10:27:23.602Z,15.55
2022-12-18T10:29:50.810Z,15.75
2022-12-18T10:32:24.335Z,15.95
2022-12-18T10:35:00.047Z,13.93
2022-12-18T10:37:30.359Z,14.30
2022-12-18T10:40:10.801Z,15.20
2022-12-18T10:42:38.495Z,14.15
2022-12-18T10:45:16.334Z,11.45
2022-12-18T10:47:49.676Z,11.80
2022-12-18T10:51:01.290Z,12.02
2022-12-18T10:53:21.556Z,12.82
2022-12-18T10:55:49.143Z,13.13
2022-12-18T10:58:26.751Z,14.48
2022-12-18T11:01:16.700Z,16.00
2022-12-18T11:04:02.468Z,11.93
2022-12-18T11:06:30.460Z,12.93
2022-12-18T11:09:23.082Z,12.05
2022-12-18T11:11:54.991Z,12.13
2022-12-18T11:14:25.173Z,12.73
2022-12-18T11:19:42.029Z,12.82
2022-12-18T11:22:28.847Z,12.25
2022-12-18T11:25:30.216Z,11.23
2022-12-18T11:27:50.810Z,10.43
2022-12-18T11:30:21.109Z,9.70
2022-12-18T11:32:50.215Z,10.25
2022-12-18T11:35:29.615Z,11.18
2022-12-18T11:38:27.555Z,10.70
2022-12-18T11:42:00.466Z,11.93
2022-12-18T11:44:44.055Z,11.82
2022-12-18T11:47:37.135Z,13.23
2022-12-18T11:50:16.166Z,10.90
2022-12-18T11:52:43.976Z,10.45
2022-12-18T11:55:26.657Z,11.80
2022-12-18T11:58:06.002Z,11.10
2022-12-18T12:00:36.761Z,10.98
2022-12-18T12:03:16.224Z,11.73
2022-12-18T12:06:07.275Z,10.10
2022-12-18T12:08:52.988Z,10.77
2022-12-18T12:11:52.499Z,10.60
2022-12-18T12:14:33.671Z,8.88
2022-12-18T12:17:26.961Z,9.80
2022-12-18T12:20:23.577Z,10.52
2022-12-18T12:23:02.061Z,10.55
2022-12-18T12:25:40.671Z,10.43
2022-12-18T12:28:39.088Z,11.05
2022-12-18T12:31:09.003Z,9.52
2022-12-18T12:33:51.036Z,9.10
2022-12-18T12:36:27.340Z,11.12
2022-12-18T12:38:57.358Z,11.60
2022-12-18T12:41:45.726Z,11.77
2022-12-18T12:44:19.572Z,10.02
2022-12-18T12:46:47.807Z,10.50
2022-12-18T12:49:18.689Z,11.40
2022-12-18T12:52:14.367Z,11.70
2022-12-18T12:54:42.174Z,12.10
2022-12-18T12:57:19.234Z,12.45
2022-12-18T13:00:03.744Z,10.57
2022-12-18T13:02:40.187Z,10.57
2022-12-18T13:05:17.915Z,10.60
2022-12-18T13:07:51.459Z,10.60
2022-12-18T13:10:22.231Z,10.00
2022-12-18T13:12:58.816Z,11.10
2022-12-18T13:15:40.673Z,11.10
2022-12-18T13:18:10.439Z,11.32
2022-12-18T13:20:40.735Z,11.12
2022-12-18T13:23:20.983Z,10.30
2022-12-18T13:25:51.221Z,12.95
2022-12-18T13:28:22.938Z,11.93
2022-12-18T13:30:55.383Z,12.35
2022-12-18T13:33:27.933Z,11.02
2022-12-18T13:36:28.619Z,11.23
2022-12-18T13:39:17.303Z,10.40
2022-12-18T13:41:50.467Z,10.38
2022-12-18T13:44:41.135Z,12.07
2022-12-18T13:47:33.799Z,10.98
2022-12-18T13:50:12.880Z,11.65
2022-12-18T13:52:41.260Z,10.52
2022-12-18T13:55:17.588Z,10.57
2022-12-18T13:57:45.221Z,10.85
2022-12-18T14:00:29.790Z,11.82
2022-12-18T14:02:58.526Z,10.63
2022-12-18T14:05:31.047Z,12.20
2022-12-18T14:08:03.777Z,10.77
2022-12-18T14:10:47.794Z,11.35
2022-12-18T14:13:24.747Z,11.55
2022-12-18T14:15:52.035Z,11.00
2022-12-18T14:18:25.232Z,12.37
2022-12-18T14:20:54.596Z,11.02
2022-12-18T14:23:33.556Z,10.65
2022-12-18T14:26:05.725Z,10.77
2022-12-18T14:28:45.007Z,9.98
2022-12-18T14:31:23.273Z,10.55
2022-12-18T14:33:51.299Z,10.18
2022-12-18T14:36:29.691Z,11.77
2022-12-18T14:38:58.496Z,12.02
2022-12-18T14:41:26.517Z,11.10
2022-12-18T14:43:55.130Z,11.73
2022-12-18T14:46:46.793Z,13.40
2022-12-18T14:49:34.905Z,12.65
2022-12-18T14:52:04.818Z,12.27
2022-12-18T14:54:32.552Z,11.77
2022-12-18T14:57:07.730Z,12.27
2022-12-18T14:59:35.030Z,13.90
2022-12-18T15:02:26.804Z,12.82
2022-12-18T15:05:22.057Z,12.70
2022-12-18T15:07:51.893Z,11.80
2022-12-18T15:10:34.116Z,12.30
2022-12-18T15:13:01.577Z,11.23
2022-12-18T15:15:37.991Z,13.05
2022-12-18T15:18:07.566Z,11.48
2022-12-18T15:20:52.136Z,13.15
2022-12-18T15:23:27.700Z,21.55
2022-12-18T15:26:00.433Z,19.35
2022-12-18T15:28:39.099Z,20.02
2022-12-18T15:31:26.376Z,15.98
2022-12-18T15:33:53.870Z,16.23
2022-12-18T15:36:26.174Z,27.80
2022-12-18T15:39:02.903Z,24.70
2022-12-18T15:41:35.211Z,44.08
2022-12-18T15:44:04.503Z,68.70
2022-12-18T15:46:32.114Z,27.70
2022-12-18T15:49:02.558Z,26.08
2022-12-18T15:51:41.440Z,24.15
2022-12-18T15:54:13.962Z,21.15
2022-12-18T15:56:59.597Z,23.02
2022-12-18T15:59:27.007Z,23.33
2022-12-18T16:01:54.370Z,22.17
2022-12-18T16:04:23.097Z,25.80
2022-12-18T16:09:40.987Z,20.50
2022-12-18T16:12:22.144Z,24.23
2022-12-18T16:14:49.680Z,22.55
2022-12-18T16:17:16.916Z,19.87
2022-12-18T16:19:44.288Z,20.80
2022-12-18T16:22:19.941Z,25.80
2022-12-18T16:24:46.994Z,21.65
2022-12-18T16:27:14.352Z,18.87
2022-12-18T16:29:41.448Z,20.10
2022-12-18T16:32:14.079Z,24.27
2022-12-18T16:34:42.951Z,32.72
2022-12-18T16:37:11.871Z,24.75
2022-12-18T16:39:40.127Z,23.25
2022-12-18T16:42:13.653Z,19.15
2022-12-18T16:44:41.306Z,16.45
2022-12-18T16:47:09.546Z,15.55
2022-12-18T16:49:38.585Z,15.45
2022-12-18T16:52:06.581Z,16.05
2022-12-18T16:54:35.135Z,15.10
2022-12-18T16:57:02.733Z,14.10
2022-12-18T16:59:29.912Z,14.75
2022-12-18T17:01:57.724Z,13.82
2022-12-18T17:04:25.104Z,16.17
2022-12-18T17:06:53.859Z,17.67
2022-12-18T17:09:31.040Z,16.33
2022-12-18T17:11:58.167Z,18.73
2022-12-18T17:14:25.841Z,22.40
2022-12-18T17:17:20.288Z,26.08
2022-12-18T17:19:44.408Z,19.95
2022-12-18T17:22:11.489Z,24.52
2022-12-18T17:24:38.622Z,22.15
2022-12-18T17:27:06.029Z,23.23
2022-12-18T17:29:33.231Z,21.80
2022-12-18T17:32:00.410Z,29.15
2022-12-18T17:34:30.132Z,26.33
2022-12-18T17:36:58.056Z,21.70
2022-12-18T17:39:25.804Z,21.37
2022-12-18T17:41:53.083Z,22.37
2022-12-18T17:44:20.410Z,21.70
2022-12-18T17:46:47.538Z,21.20
2022-12-18T17:49:15.008Z,22.37
2022-12-18T17:51:43.092Z,23.17
2022-12-18T17:54:11.058Z,23.80
2022-12-18T17:56:38.818Z,30.88
2022-12-18T17:59:07.180Z,40.70
2022-12-18T18:01:38.479Z,42.50
2022-12-18T18:04:08.501Z,35.85
2022-12-18T18:06:38.101Z,30.67
2022-12-18T18:09:12.948Z,30.58
2022-12-18T18:12:06.691Z,37.83
2022-12-18T18:14:33.724Z,37.13
2022-12-18T18:17:04.795Z,28.00
2022-12-18T18:19:35.751Z,23.58
2022-12-18T18:22:03.709Z,26.67
2022-12-18T18:24:31.272Z,26.05
2022-12-18T18:27:00.020Z,25.50
2022-12-18T18:29:30.297Z,26.50
2022-12-18T18:31:57.934Z,26.25
2022-12-18T18:34:27.921Z,25.95
2022-12-18T18:36:55.570Z,27.80
2022-12-18T18:39:25.391Z,28.05
2022-12-18T18:41:52.814Z,27.80
2022-12-18T18:44:24.812Z,28.65
2022-12-18T18:46:57.312Z,30.27
2022-12-18T18:49:27.459Z,27.23
2022-12-18T18:51:56.291Z,31.12
2022-12-18T18:54:25.382Z,33.60
2022-12-18T18:59:39.856Z,40.10
2022-12-18T19:02:14.302Z,40.22
2022-12-18T19:04:46.260Z,37.22
2022-12-18T19:07:19.752Z,34.63
2022-12-18T19:09:57.132Z,40.42
2022-12-18T19:12:45.052Z,36.85
2022-12-18T19:15:12.055Z,31.77
2022-12-18T19:17:41.068Z,31.98
2022-12-18T19:20:10.172Z,31.05
2022-12-18T19:22:39.472Z,28.38
2022-12-18T19:25:07.686Z,27.05
2022-12-18T19:27:38.531Z,23.60
2022-12-18T19:30:06.102Z,23.45
2022-12-18T19:32:36.451Z,22.13
2022-12-18T19:35:04.003Z,23.55
2022-12-18T19:37:31.205Z,21.60
2022-12-18T19:39:58.634Z,22.48
2022-12-18T19:42:34.848Z,19.27
2022-12-18T19:45:07.204Z,19.80
2022-12-18T19:47:34.203Z,25.30
2022-12-18T19:50:01.274Z,23.33
2022-12-18T19:52:28.621Z,22.30
2022-12-18T19:54:55.702Z,22.25
2022-12-18T19:57:22.810Z,22.85
2022-12-18T19:59:50.142Z,24.73
2022-12-18T20:02:18.933Z,25.50
2022-12-18T20:04:46.737Z,24.80
2022-12-18T20:07:13.804Z,24.58
2022-12-18T20:09:40.903Z,22.95
2022-12-18T20:12:08.347Z,24.37
2022-12-18T20:14:36.647Z,25.50
2022-12-18T20:17:03.758Z,27.15
2022-12-18T20:19:32.319Z,30.17
2022-12-18T20:22:01.162Z,26.42
2022-12-18T20:24:28.268Z,27.87
2022-12-18T20:26:56.435Z,22.90
2022-12-18T20:29:23.438Z,22.40
2022-12-18T20:31:50.691Z,21.52
2022-12-18T20:34:18.446Z,18.85
2022-12-18T20:36:46.394Z,20.92
2022-12-18T20:39:13.595Z,25.95
2022-12-18T20:41:41.751Z,21.30
2022-12-18T20:44:22.878Z,21.65
2022-12-18T20:46:53.908Z,19.00
2022-12-18T20:49:21.227Z,21.80
2022-12-18T20:51:52.906Z,19.87
2022-12-18T20:54:24.710Z,21.98
2022-12-18T20:56:52.279Z,22.13
2022-12-18T20:59:19.778Z,21.87
2022-12-18T21:01:48.982Z,20.35
2022-12-18T21:04:18.991Z,18.30
2022-12-18T21:06:52.997Z,20.58
2022-12-18T21:09:23.409Z,22.60
2022-12-18T21:12:29.236Z,21.50
2022-12-18T21:14:59.725Z,21.40
2022-12-18T21:17:27.262Z,22.67
2022-12-18T21:19:55.753Z,22.67
2022-12-18T21:22:23.155Z,22.00
2022-12-18T21:24:50.310Z,23.33
2022-12-18T21:27:18.116Z,22.52
2022-12-18T21:29:47.047Z,21.95
2022-12-18T21:32:14.407Z,23.60
2022-12-18T21:34:47.505Z,23.38
2022-12-18T21:37:15.831Z,24.92
2022-12-18T21:39:42.873Z,24.80
2022-12-18T21:42:30.683Z,23.27
2022-12-18T21:44:58.006Z,22.13
2022-12-18T21:47:25.091Z,21.55
2022-12-18T21:49:52.849Z,19.85
2022-12-18T21:52:23.878Z,21.90
2022-12-18T21:55:06.154Z,21.67
2022-12-18T21:57:36.034Z,20.27
2022-12-18T22:00:04.216Z,19.90
2022-12-18T22:02:39.631Z,21.45
2022-12-18T22:05:07.557Z,21.33
2022-12-18T22:07:34.780Z,21.87
2022-12-18T22:10:02.286Z,22.67
2022-12-18T22:12:44.420Z,24.20
2022-12-18T22:15:21.143Z,21.15
2022-12-18T22:17:50.787Z,22.08
2022-12-18T22:20:19.990Z,22.83
2022-12-18T22:22:48.469Z,25.17
2022-12-18T22:25:16.002Z,24.35
2022-12-18T22:27:43.416Z,22.70
2022-12-18T22:30:11.379Z,22.75
2022-12-18T22:32:38.715Z,23.02
2022-12-18T22:35:10.603Z,24.58
2022-12-18T22:37:40.273Z,24.30
2022-12-18T22:40:08.637Z,23.65
2022-12-18T22:42:35.819Z,24.12
2022-12-18T22:45:03.312Z,25.45
2022-12-18T22:47:30.840Z,25.05
2022-12-18T22:49:58.284Z,23.95
2022-12-18T22:52:25.899Z,26.58
2022-12-18T22:54:56.402Z,25.83
2022-12-18T22:57:23.853Z,24.63
2022-12-18T22:59:51.811Z,25.02
2022-12-18T23:02:19.327Z,25.75
2022-12-18T23:04:47.564Z,28.98
2022-12-18T23:07:15.699Z,25.52
2022-12-18T23:09:42.955Z,23.87
2022-12-18T23:12:15.444Z,26.92
2022-12-18T23:14:47.196Z,25.33
2022-12-18T23:17:14.334Z,25.75
2022-12-18T23:19:47.176Z,25.48
2022-12-18T23:22:17.068Z,23.85
2022-12-18T23:24:44.194Z,28.92
2022-12-18T23:27:11.936Z,25.90
2022-12-18T23:29:40.540Z,24.08
2022-12-18T23:32:07.833Z,25.55
2022-12-18T23:34:34.807Z,24.25
2022-12-18T23:37:03.642Z,24.25
2022-12-18T23:39:31.049Z,25.83
2022-12-18T23:41:58.760Z,25.37
2022-12-18T23:44:26.296Z,26.33
2022-12-18T23:46:53.577Z,26.02
2022-12-18T23:49:20.703Z,25.60
2022-12-18T23:51:48.084Z,24.83
2022-12-18T23:54:15.176Z,25.52
2022-12-18T23:56:42.324Z,24.08
2022-12-18T23:59:09.848Z,25.70
